Time;durP1;ratioP1;P1;durP2;ratioP2;P2;SDS_P1;SDS_P2;PMS_P1;PMS_P2;Temp;Humidity;BMP_temperature;BMP_pressure;BME280_temperature;BME280_humidity;BME280_pressure;Samples;Min_cycle;Max_cycle;Signal;HPM_P1;HPM_P2
2022/08/02 00:00:00;;;;;;;6.65;2.50;;;17.80;99.90;;;;;;5071845;28;20036;-46
2022/08/02 00:02:25;;;;;;;5.20;2.38;;;17.80;99.90;;;;;;5071753;28;20017;-45
2022/08/02 00:04:51;;;;;;;6.05;2.67;;;17.80;99.90;;;;;;5071740;28;20036;-51
2022/08/02 00:07:17;;;;;;;6.22;2.65;;;17.80;99.90;;;;;;5071768;28;20487;-48
2022/08/02 00:09:43;;;;;;;6.00;2.38;;;17.80;99.90;;;;;;5071278;28;20139;-46
2022/08/02 00:12:09;;;;;;;6.78;2.67;;;17.90;99.90;;;;;;5071723;28;20028;-48
2022/08/02 00:14:36;;;;;;;5.97;2.30;;;17.80;99.90;;;;;;5071182;28;20024;-55
2022/08/02 00:17:03;;;;;;;8.00;2.63;;;17.70;99.90;;;;;;5071640;28;20119;-47
2022/08/02 00:19:28;;;;;;;7.07;3.25;;;17.70;99.90;;;;;;5071381;28;20103;-51
2022/08/02 00:21:54;;;;;;;7.72;2.55;;;17.60;99.90;;;;;;5071404;28;20112;-51
2022/08/02 00:24:20;;;;;;;6.25;2.53;;;17.60;99.90;;;;;;5071468;28;20430;-55
2022/08/02 00:26:45;;;;;;;7.95;2.15;;;17.60;99.90;;;;;;5071001;28;20012;-47
2022/08/02 00:29:11;;;;;;;6.97;2.30;;;17.60;99.90;;;;;;5071340;28;20398;-46
2022/08/02 00:31:36;;;;;;;8.20;2.50;;;17.60;99.90;;;;;;5071029;28;20438;-51
2022/08/02 00:34:02;;;;;;;4.72;2.25;;;17.60;99.90;;;;;;5071047;28;20472;-50
2022/08/02 00:36:28;;;;;;;8.02;2.50;;;17.60;99.90;;;;;;5070904;28;20021;-49
2022/08/02 00:38:54;;;;;;;6.15;2.55;;;17.60;99.90;;;;;;5071509;28;20020;-55
2022/08/02 00:41:21;;;;;;;4.13;2.25;;;17.60;99.90;;;;;;5070749;28;20104;-48
2022/08/02 00:43:48;;;;;;;7.18;2.28;;;17.60;99.90;;;;;;5070854;28;20421;-53
2022/08/02 00:46:15;;;;;;;6.18;2.33;;;17.60;99.90;;;;;;5071063;28;20024;-55
2022/08/02 00:48:41;;;;;;;7.53;2.70;;;17.60;99.90;;;;;;5057688;28;20029;-53
2022/08/02 00:51:07;;;;;;;8.65;2.38;;;17.50;99.90;;;;;;5070251;28;20035;-55
2022/08/02 00:53:33;;;;;;;7.35;2.25;;;17.50;99.90;;;;;;5069869;28;20116;-49
2022/08/02 00:55:59;;;;;;;6.78;2.20;;;17.50;99.90;;;;;;5070649;28;20025;-46
2022/08/02 00:58:25;;;;;;;6.18;2.35;;;17.50;99.90;;;;;;5071136;28;20086;-49
2022/08/02 01:00:50;;;;;;;12.25;2.83;;;17.50;99.90;;;;;;5070622;28;20032;-49
2022/08/02 01:03:16;;;;;;;4.93;2.63;;;17.50;99.90;;;;;;5070926;28;20031;-53
2022/08/02 01:05:43;;;;;;;6.18;2.10;;;17.50;99.90;;;;;;5070940;28;20028;-48
2022/08/02 01:08:09;;;;;;;6.07;2.22;;;17.50;99.90;;;;;;5071138;28;20051;-48
2022/08/02 01:10:34;;;;;;;7.97;2.40;;;17.50;99.90;;;;;;5070756;28;20443;-45
2022/08/02 01:13:00;;;;;;;5.72;2.35;;;17.50;99.90;;;;;;5070740;28;20314;-46
2022/08/02 01:15:27;;;;;;;7.32;2.88;;;17.50;99.90;;;;;;5070903;28;20027;-51
2022/08/02 01:18:04;;;;;;;7.03;2.20;;;17.40;99.90;;;;;;5070582;28;20553;-45
2022/08/02 01:20:36;;;;;;;6.53;2.28;;;17.50;99.90;;;;;;5071058;28;20035;-52
2022/08/02 01:23:30;;;;;;;8.80;2.65;;;17.50;99.90;;;;;;5070480;28;20040;-54
2022/08/02 01:26:01;;;;;;;6.28;2.25;;;17.50;99.90;;;;;;5070671;28;20031;-47
2022/08/02 01:28:45;;;;;;;5.95;2.30;;;17.50;99.90;;;;;;5070751;28;20028;-46
2022/08/02 01:31:26;;;;;;;12.52;2.90;;;17.40;99.90;;;;;;5070703;28;20054;-50
2022/08/02 01:34:10;;;;;;;6.80;2.70;;;17.50;99.90;;;;;;5070695;28;20055;-49
2022/08/02 01:36:41;;;;;;;6.38;2.50;;;17.50;99.90;;;;;;5070532;28;20055;-51
2022/08/02 01:39:13;;;;;;;10.27;2.70;;;17.50;99.90;;;;;;5070371;28;20110;-51
2022/08/02 01:41:40;;;;;;;9.52;2.60;;;17.50;99.90;;;;;;5070423;28;20391;-47
2022/08/02 01:44:07;;;;;;;7.00;2.38;;;17.40;99.90;;;;;;5070315;28;20032;-48
2022/08/02 01:46:34;;;;;;;7.95;2.80;;;17.40;99.90;;;;;;5070574;28;20400;-50
2022/08/02 01:49:04;;;;;;;8.65;3.10;;;17.40;99.90;;;;;;5056179;28;20025;-46
2022/08/02 01:54:18;;;;;;;5.70;2.38;;;17.40;99.90;;;;;;5071528;28;20082;-46
2022/08/02 01:56:46;;;;;;;8.52;3.00;;;17.40;99.90;;;;;;5073880;28;20045;-49
2022/08/02 01:59:15;;;;;;;8.60;3.13;;;17.40;99.90;;;;;;5074048;28;20040;-53
2022/08/02 02:01:42;;;;;;;12.95;3.10;;;17.40;99.90;;;;;;5074193;28;20083;-51
2022/08/02 02:04:09;;;;;;;6.82;2.78;;;17.40;99.90;;;;;;5073887;28;20409;-52
2022/08/02 02:06:36;;;;;;;6.55;3.28;;;17.40;99.90;;;;;;5074095;28;20418;-46
2022/08/02 02:09:03;;;;;;;9.40;3.42;;;17.40;99.90;;;;;;5073973;28;20029;-52
2022/08/02 02:11:30;;;;;;;10.20;3.50;;;17.40;99.90;;;;;;5073918;28;20012;-46
2022/08/02 02:13:59;;;;;;;10.30;3.33;;;17.30;99.90;;;;;;5073952;28;20466;-48
2022/08/02 02:16:26;;;;;;;10.88;3.30;;;17.30;99.90;;;;;;5073826;28;20027;-46
2022/08/02 02:18:52;;;;;;;7.30;2.97;;;17.20;99.90;;;;;;5073829;28;20146;-49
2022/08/02 02:21:18;;;;;;;7.43;3.15;;;17.30;99.90;;;;;;5073714;28;20517;-46
2022/08/02 02:23:44;;;;;;;8.40;3.38;;;17.20;99.90;;;;;;5073712;28;20041;-48
2022/08/02 02:26:14;;;;;;;5.57;3.10;;;17.20;99.90;;;;;;5073345;28;20748;-47
2022/08/02 02:28:42;;;;;;;6.93;3.28;;;17.20;99.90;;;;;;5060233;28;20114;-48
2022/08/02 02:31:14;;;;;;;6.53;3.22;;;17.20;99.90;;;;;;5073670;28;20542;-51
2022/08/02 02:33:57;;;;;;;10.48;3.20;;;17.20;99.90;;;;;;5073478;28;20475;-49
2022/08/02 02:36:24;;;;;;;7.95;3.35;;;17.20;99.90;;;;;;5073560;28;20035;-50
2022/08/02 02:38:51;;;;;;;6.60;3.42;;;17.20;99.90;;;;;;5073677;28;20028;-50
2022/08/02 02:41:18;;;;;;;6.25;3.15;;;17.20;99.90;;;;;;5073578;28;20111;-46
2022/08/02 02:43:45;;;;;;;7.15;3.33;;;17.20;99.90;;;;;;5073314;28;20402;-48
2022/08/02 02:46:12;;;;;;;13.82;4.00;;;17.20;99.90;;;;;;5073470;28;20052;-54
2022/08/02 02:48:38;;;;;;;7.55;3.45;;;17.30;99.90;;;;;;5060426;28;20031;-50
2022/08/02 02:51:05;;;;;;;8.57;3.30;;;17.30;99.90;;;;;;5072329;28;20086;-52
2022/08/02 02:53:31;;;;;;;8.00;3.63;;;17.30;99.90;;;;;;5073241;28;20021;-49
2022/08/02 02:55:58;;;;;;;8.45;3.50;;;17.30;99.90;;;;;;5072868;28;20534;-52
2022/08/02 02:58:24;;;;;;;6.68;3.42;;;17.40;99.90;;;;;;5073324;28;20032;-50
2022/08/02 03:03:36;;;;;;;9.73;3.60;;;17.60;99.90;;;;;;5073187;28;20497;-47
2022/08/02 03:06:02;;;;;;;6.28;3.50;;;17.40;99.90;;;;;;5063838;28;20053;-47
2022/08/02 03:08:28;;;;;;;8.07;3.60;;;17.40;99.90;;;;;;5057092;28;20036;-48
2022/08/02 03:10:54;;;;;;;7.18;3.17;;;17.40;99.90;;;;;;5056032;28;20029;-52
2022/08/02 03:13:20;;;;;;;8.38;3.65;;;17.40;99.90;;;;;;5065344;28;20036;-50
2022/08/02 03:15:46;;;;;;;7.63;4.00;;;17.40;99.90;;;;;;5061305;28;20406;-51
2022/08/02 03:18:33;;;;;;;10.18;3.65;;;17.40;99.90;;;;;;5070405;28;20021;-55
2022/08/02 03:21:01;;;;;;;11.13;4.03;;;17.40;99.90;;;;;;5072513;28;20111;-49
2022/08/02 03:23:27;;;;;;;8.05;3.53;;;17.40;99.90;;;;;;5068025;28;20063;-45
2022/08/02 03:25:53;;;;;;;9.35;3.63;;;17.40;99.90;;;;;;5069825;28;20483;-46
2022/08/02 03:28:18;;;;;;;9.73;3.70;;;17.50;99.90;;;;;;5072543;28;20033;-46
2022/08/02 03:30:44;;;;;;;5.85;3.40;;;17.50;99.90;;;;;;5072710;28;20020;-47
2022/08/02 03:33:10;;;;;;;10.45;3.75;;;17.50;99.90;;;;;;5072207;28;20165;-55
2022/08/02 03:35:37;;;;;;;7.70;3.60;;;17.50;99.90;;;;;;5072502;28;20055;-52
2022/08/02 03:38:04;;;;;;;7.53;2.90;;;17.50;99.90;;;;;;5072614;28;20107;-46
2022/08/02 03:40:30;;;;;;;7.70;3.75;;;17.50;99.90;;;;;;5067807;28;20027;-48
2022/08/02 03:42:56;;;;;;;8.18;3.10;;;17.50;99.90;;;;;;5062727;28;20050;-48
2022/08/02 03:45:24;;;;;;;7.03;3.40;;;17.50;99.90;;;;;;5072139;28;20431;-47
2022/08/02 03:47:51;;;;;;;11.43;3.35;;;17.50;99.90;;;;;;5072226;28;20460;-50
2022/08/02 03:50:18;;;;;;;7.85;3.13;;;17.50;99.90;;;;;;5072099;28;20085;-48
2022/08/02 03:52:45;;;;;;;10.23;3.40;;;17.50;99.90;;;;;;5072065;28;20015;-50
2022/08/02 03:55:12;;;;;;;9.50;3.75;;;17.50;99.90;;;;;;5071906;28;20033;-47
2022/08/02 03:57:39;;;;;;;13.10;3.45;;;17.60;99.90;;;;;;5071863;28;20031;-47
2022/08/02 04:00:06;;;;;;;8.23;3.55;;;17.60;99.90;;;;;;5072009;28;20115;-47
2022/08/02 04:02:32;;;;;;;12.13;3.78;;;17.60;99.90;;;;;;5071618;28;20019;-47
2022/08/02 04:04:58;;;;;;;8.02;3.40;;;17.70;99.90;;;;;;5071764;28;20119;-51
2022/08/02 04:07:23;;;;;;;10.15;3.60;;;17.70;99.90;;;;;;5071881;28;20033;-48
2022/08/02 04:09:49;;;;;;;6.20;3.33;;;17.70;99.90;;;;;;5071748;28;20055;-52
2022/08/02 04:12:15;;;;;;;7.63;3.05;;;17.70;99.90;;;;;;5071913;28;20024;-50
2022/08/02 04:14:41;;;;;;;9.15;3.58;;;17.70;99.90;;;;;;5066780;28;20504;-50
2022/08/02 04:17:09;;;;;;;4.93;2.67;;;17.80;99.90;;;;;;5062295;28;20029;-51
2022/08/02 04:19:41;;;;;;;12.52;4.10;;;17.90;99.90;;;;;;5071535;28;20056;-46
2022/08/02 04:22:15;;;;;;;9.50;2.72;;;17.90;99.90;;;;;;5071737;28;20081;-49
2022/08/02 04:24:48;;;;;;;8.38;2.40;;;17.90;99.90;;;;;;5071132;28;20044;-53
2022/08/02 04:27:14;;;;;;;7.70;2.35;;;18.00;99.90;;;;;;5071431;28;20383;-51
2022/08/02 04:29:41;;;;;;;7.80;2.40;;;18.00;99.90;;;;;;5071249;28;20379;-51
2022/08/02 04:32:07;;;;;;;5.35;2.22;;;18.10;99.90;;;;;;5071708;28;20051;-46
2022/08/02 04:34:33;;;;;;;6.07;2.30;;;18.10;99.90;;;;;;5071176;28;20113;-46
2022/08/02 04:36:59;;;;;;;6.70;2.83;;;18.20;99.90;;;;;;5071387;28;20025;-46
2022/08/02 04:39:26;;;;;;;8.88;2.30;;;18.20;99.90;;;;;;5071375;28;20025;-45
2022/08/02 04:41:52;;;;;;;6.85;2.25;;;18.30;99.90;;;;;;5071143;28;20034;-54
2022/08/02 04:44:18;;;;;;;7.50;2.28;;;18.40;99.90;;;;;;5070991;28;20029;-47
2022/08/02 04:46:45;;;;;;;8.93;2.05;;;18.40;99.90;;;;;;5070946;28;20108;-48
2022/08/02 04:49:11;;;;;;;4.97;2.13;;;18.40;99.90;;;;;;5071241;28;20028;-46
2022/08/02 04:51:38;;;;;;;10.57;2.60;;;18.50;99.90;;;;;;5070688;28;20021;-46
2022/08/02 04:54:06;;;;;;;9.18;2.40;;;18.50;99.90;;;;;;5069424;28;20028;-55
2022/08/02 04:56:31;;;;;;;8.20;2.75;;;18.60;99.90;;;;;;5070869;28;20445;-46
2022/08/02 04:58:57;;;;;;;7.60;2.35;;;18.70;99.90;;;;;;5070840;28;20032;-47
2022/08/02 05:01:23;;;;;;;7.95;2.22;;;18.70;99.90;;;;;;5070959;28;20057;-46
2022/08/02 05:03:48;;;;;;;8.10;2.47;;;18.70;99.90;;;;;;5070416;28;20024;-47
2022/08/02 05:06:15;;;;;;;9.40;2.47;;;18.80;99.90;;;;;;5071029;28;20044;-50
2022/08/02 05:08:41;;;;;;;6.65;1.90;;;18.80;99.90;;;;;;5070829;28;20032;-47
2022/08/02 05:11:06;;;;;;;7.93;1.85;;;18.80;99.90;;;;;;5070992;28;20093;-52
2022/08/02 05:13:32;;;;;;;7.20;2.00;;;18.80;99.90;;;;;;5070813;28;20032;-49
2022/08/02 05:16:00;;;;;;;8.10;2.17;;;18.80;99.90;;;;;;5056562;28;20048;-53
2022/08/02 05:18:27;;;;;;;7.57;2.28;;;18.90;99.90;;;;;;5070843;28;20025;-51
2022/08/02 05:20:53;;;;;;;7.65;2.05;;;18.90;99.90;;;;;;5070822;28;20031;-47
2022/08/02 05:23:19;;;;;;;6.95;2.30;;;18.90;99.90;;;;;;5070568;28;20029;-51
2022/08/02 05:25:45;;;;;;;8.65;2.13;;;18.90;99.90;;;;;;5070371;28;20108;-52
2022/08/02 05:28:10;;;;;;;5.32;1.70;;;18.90;99.90;;;;;;5086166;28;20052;-54
2022/08/02 05:30:36;;;;;;;5.00;1.55;;;19.00;99.90;;;;;;5074252;28;20036;-46
2022/08/02 05:33:03;;;;;;;4.03;1.65;;;19.00;99.90;;;;;;5074625;28;20531;-49
2022/08/02 05:35:29;;;;;;;7.07;2.00;;;19.00;99.90;;;;;;5074660;28;20441;-49
2022/08/02 05:37:54;;;;;;;3.85;1.60;;;19.00;99.90;;;;;;5074756;28;20048;-47
2022/08/02 05:40:20;;;;;;;5.45;1.75;;;19.00;99.90;;;;;;5074648;28;20025;-53
2022/08/02 05:42:46;;;;;;;3.63;1.50;;;19.10;99.90;;;;;;5073320;28;20028;-46
2022/08/02 05:45:12;;;;;;;7.82;1.67;;;19.10;99.90;;;;;;5074518;28;20079;-55
2022/08/02 05:47:38;;;;;;;4.45;1.40;;;19.10;99.90;;;;;;5074740;28;20082;-50
2022/08/02 05:50:06;;;;;;;7.20;1.92;;;19.10;99.90;;;;;;5074532;28;20024;-50
2022/08/02 05:52:45;;;;;;;7.50;1.67;;;19.10;99.90;;;;;;5074251;28;20403;-50
2022/08/02 05:55:25;;;;;;;5.67;1.70;;;19.10;99.90;;;;;;5073984;28;20479;-55
2022/08/02 05:58:00;;;;;;;5.47;1.65;;;19.10;99.90;;;;;;5073748;28;20111;-53
2022/08/02 06:00:30;;;;;;;4.57;1.60;;;19.10;99.90;;;;;;5074130;28;20103;-48
2022/08/02 06:03:18;;;;;;;6.13;1.80;;;19.10;99.90;;;;;;5074074;28;20040;-47
2022/08/02 06:06:10;;;;;;;4.40;1.70;;;19.10;99.90;;;;;;5073918;28;20482;-49
2022/08/02 06:08:43;;;;;;;4.65;2.33;;;19.10;99.90;;;;;;5068610;28;20021;-51
2022/08/02 06:11:14;;;;;;;4.78;2.00;;;19.10;99.90;;;;;;5073733;28;20113;-50
2022/08/02 06:13:44;;;;;;;3.75;1.30;;;19.20;99.90;;;;;;5073947;28;20096;-50
2022/08/02 06:16:10;;;;;;;4.03;1.50;;;19.30;99.90;;;;;;5060081;28;20078;-46
2022/08/02 06:18:36;;;;;;;5.47;1.40;;;19.40;99.90;;;;;;5073876;28;20025;-47
2022/08/02 06:21:04;;;;;;;4.93;1.50;;;19.50;99.90;;;;;;5073843;28;20029;-54
2022/08/02 06:23:31;;;;;;;7.45;1.90;;;19.50;99.90;;;;;;5073821;28;20051;-50
2022/08/02 06:25:58;;;;;;;7.95;2.03;;;19.60;99.90;;;;;;5073603;28;20078;-53
2022/08/02 06:28:24;;;;;;;6.20;1.50;;;19.60;99.90;;;;;;5073565;28;20029;-52
2022/08/02 06:30:50;;;;;;;5.32;1.75;;;19.70;99.90;;;;;;5073508;28;20017;-51
2022/08/02 06:33:15;;;;;;;6.65;1.83;;;19.80;99.90;;;;;;5073321;28;20368;-46
2022/08/02 06:35:41;;;;;;;6.50;1.90;;;19.80;99.90;;;;;;5073200;28;20033;-49
2022/08/02 06:38:09;;;;;;;5.80;1.70;;;19.80;99.90;;;;;;5073386;28;20032;-53
2022/08/02 06:41:02;;;;;;;6.10;1.92;;;19.80;99.90;;;;;;5072994;28;20032;-47
2022/08/02 06:43:45;;;;;;;8.45;1.75;;;19.90;99.90;;;;;;5073060;28;20111;-48
2022/08/02 06:46:11;;;;;;;4.32;1.70;;;19.90;99.90;;;;;;5073316;28;20020;-49
2022/08/02 06:48:37;;;;;;;7.10;1.70;;;20.00;99.90;;;;;;5071729;28;20040;-48
2022/08/02 06:51:04;;;;;;;5.40;1.60;;;20.00;99.90;;;;;;5073340;28;20085;-52
2022/08/02 06:53:30;;;;;;;6.50;2.03;;;20.10;99.90;;;;;;5072563;28;20025;-46
2022/08/02 06:55:56;;;;;;;7.10;1.73;;;20.10;99.90;;;;;;5071512;28;20025;-51
2022/08/02 06:58:22;;;;;;;8.57;2.10;;;20.10;99.90;;;;;;5072437;28;20146;-48
2022/08/02 07:00:48;;;;;;;6.30;2.10;;;20.20;99.90;;;;;;5069969;28;20111;-50
2022/08/02 07:03:14;;;;;;;7.68;2.20;;;20.10;99.90;;;;;;5071690;28;20040;-51
2022/08/02 07:05:40;;;;;;;6.72;2.05;;;20.10;99.90;;;;;;5072414;28;20028;-50
2022/08/02 07:08:06;;;;;;;6.85;2.03;;;20.10;99.90;;;;;;5062388;28;20029;-49
2022/08/02 07:10:32;;;;;;;4.75;1.83;;;20.10;99.90;;;;;;5059204;28;20027;-52
2022/08/02 07:12:58;;;;;;;4.70;2.05;;;20.20;99.90;;;;;;5072629;28;20490;-53
2022/08/02 07:15:24;;;;;;;6.30;1.88;;;20.20;99.90;;;;;;5061919;28;20104;-48
2022/08/02 07:17:49;;;;;;;7.53;1.40;;;20.40;99.90;;;;;;5069542;28;20075;-52
2022/08/02 07:20:15;;;;;;;7.40;1.70;;;20.30;99.90;;;;;;5072829;28;20021;-49
2022/08/02 07:22:41;;;;;;;5.03;1.30;;;20.30;99.90;;;;;;5072510;28;20024;-49
2022/08/02 07:25:08;;;;;;;6.03;1.33;;;20.40;99.90;;;;;;5072680;28;20052;-52
2022/08/02 07:27:34;;;;;;;5.47;1.70;;;20.40;99.90;;;;;;5072249;28;20054;-48
2022/08/02 07:29:59;;;;;;;6.60;1.83;;;20.60;99.90;;;;;;5072569;28;20028;-52
2022/08/02 07:32:28;;;;;;;4.90;1.33;;;20.60;99.90;;;;;;5072301;28;20023;-50
2022/08/02 07:34:55;;;;;;;8.52;2.35;;;20.70;99.90;;;;;;5071976;28;20527;-57
2022/08/02 07:37:22;;;;;;;6.80;1.35;;;20.70;99.90;;;;;;5072059;28;20033;-51
2022/08/02 07:39:48;;;;;;;4.00;1.75;;;20.70;99.90;;;;;;5072230;28;20648;-56
2022/08/02 07:42:14;;;;;;;6.50;1.80;;;20.80;99.90;;;;;;5072203;28;20142;-49
2022/08/02 07:44:39;;;;;;;6.03;1.50;;;20.80;99.90;;;;;;5071794;28;20676;-44
2022/08/02 07:47:05;;;;;;;6.72;1.65;;;20.90;99.90;;;;;;5072126;28;20047;-49
2022/08/02 07:49:31;;;;;;;6.90;1.40;;;21.00;99.90;;;;;;5071997;28;20388;-45
2022/08/02 07:51:57;;;;;;;2.65;1.10;;;21.10;99.90;;;;;;5071211;28;20379;-45
2022/08/02 07:54:23;;;;;;;8.38;1.27;;;21.10;99.90;;;;;;5071805;28;20031;-53
2022/08/02 07:56:49;;;;;;;9.70;1.40;;;21.00;99.90;;;;;;5071850;28;20020;-51
2022/08/02 07:59:15;;;;;;;5.40;1.20;;;21.00;99.90;;;;;;5070257;28;20025;-48
2022/08/02 08:01:41;;;;;;;3.33;1.20;;;20.90;99.90;;;;;;5071785;28;20491;-46
2022/08/02 08:04:07;;;;;;;4.90;1.40;;;20.80;99.90;;;;;;5068853;28;20039;-48
2022/08/02 08:06:33;;;;;;;3.53;1.00;;;20.80;99.90;;;;;;5068012;28;20107;-49
2022/08/02 08:08:58;;;;;;;5.22;1.60;;;20.90;99.90;;;;;;5071288;28;20024;-49
2022/08/02 08:11:24;;;;;;;2.78;0.95;;;20.90;99.90;;;;;;5066395;28;20027;-52
2022/08/02 08:13:50;;;;;;;4.90;1.15;;;21.00;99.90;;;;;;5052485;28;20024;-50
2022/08/02 08:16:16;;;;;;;6.05;1.02;;;21.10;99.90;;;;;;5070108;28;20570;-49
2022/08/02 08:18:42;;;;;;;5.00;1.13;;;21.00;99.90;;;;;;5071608;28;20103;-50
2022/08/02 08:21:08;;;;;;;3.03;0.98;;;21.10;99.90;;;;;;5058950;28;20170;-47
2022/08/02 08:23:35;;;;;;;4.45;1.20;;;21.10;99.90;;;;;;5063953;28;20036;-53
2022/08/02 08:26:01;;;;;;;5.40;0.93;;;21.10;99.90;;;;;;5067670;28;20025;-52
2022/08/02 08:28:27;;;;;;;4.32;1.08;;;21.20;99.90;;;;;;5068091;28;20031;-52
2022/08/02 08:30:52;;;;;;;4.65;1.10;;;21.30;99.90;;;;;;5070470;28;20047;-48
2022/08/02 08:33:18;;;;;;;6.20;1.10;;;21.30;99.90;;;;;;5057321;28;20028;-54
2022/08/02 08:35:44;;;;;;;5.40;1.27;;;21.30;99.90;;;;;;5054874;28;20388;-49
2022/08/02 08:38:10;;;;;;;4.57;0.80;;;21.20;99.90;;;;;;5059670;28;20025;-50
2022/08/02 08:40:36;;;;;;;3.40;1.10;;;21.20;99.90;;;;;;5059012;28;20052;-47
2022/08/02 08:43:02;;;;;;;4.22;1.30;;;21.10;99.90;;;;;;5070005;28;20032;-54
2022/08/02 08:45:28;;;;;;;4.15;1.02;;;21.20;99.90;;;;;;5070739;28;20391;-54
2022/08/02 08:48:06;;;;;;;4.32;1.85;;;21.20;99.90;;;;;;5070732;28;20021;-51
2022/08/02 08:50:38;;;;;;;3.08;0.88;;;21.10;99.90;;;;;;5070659;28;20146;-48
2022/08/02 08:53:06;;;;;;;4.28;0.90;;;21.10;99.90;;;;;;5070938;28;20017;-48
2022/08/02 08:55:34;;;;;;;6.50;1.20;;;21.20;99.90;;;;;;5069707;28;20025;-48
2022/08/02 08:58:01;;;;;;;4.25;0.80;;;21.30;99.90;;;;;;5066738;28;20056;-48
2022/08/02 09:00:29;;;;;;;3.47;1.20;;;21.40;99.90;;;;;;5060167;28;20032;-50
2022/08/02 09:02:55;;;;;;;2.90;0.82;;;21.50;99.90;;;;;;5069986;28;20028;-49
2022/08/02 09:05:22;;;;;;;4.00;1.10;;;21.50;99.90;;;;;;5063345;28;20096;-51
2022/08/02 09:07:52;;;;;;;6.60;1.30;;;21.60;99.90;;;;;;5070337;28;20047;-55
2022/08/02 09:10:44;;;;;;;4.93;1.42;;;21.40;99.90;;;;;;5067341;28;20877;-57
2022/08/02 09:13:14;;;;;;;2.53;1.10;;;21.30;99.90;;;;;;5064532;28;20030;-49
2022/08/02 09:15:41;;;;;;;3.25;1.00;;;21.40;99.90;;;;;;5057265;28;20056;-53
2022/08/02 09:18:08;;;;;;;2.97;1.05;;;21.60;99.90;;;;;;5069401;28;20020;-50
2022/08/02 09:20:50;;;;;;;2.97;1.20;;;21.70;99.90;;;;;;5070325;28;20483;-50
2022/08/02 09:23:17;;;;;;;3.63;1.20;;;21.50;99.90;;;;;;5067300;28;20028;-48
2022/08/02 09:26:01;;;;;;;2.78;1.15;;;21.40;99.90;;;;;;5063506;28;20043;-47
2022/08/02 09:28:31;;;;;;;3.75;1.17;;;21.20;99.90;;;;;;5066660;28;20086;-48
2022/08/02 09:31:12;;;;;;;2.67;1.23;;;21.00;99.90;;;;;;5068172;28;20357;-50
2022/08/02 09:33:40;;;;;;;3.55;1.02;;;20.90;99.90;;;;;;5062202;28;20044;-50
2022/08/02 09:36:07;;;;;;;3.77;1.37;;;20.90;99.90;;;;;;5069888;28;20025;-52
2022/08/02 09:38:34;;;;;;;4.88;1.70;;;20.90;99.90;;;;;;5070926;28;20075;-50
2022/08/02 09:41:02;;;;;;;7.80;1.90;;;20.90;99.90;;;;;;5064090;28;20100;-52
2022/08/02 09:43:34;;;;;;;6.32;1.80;;;21.00;99.90;;;;;;5062857;28;20021;-48
2022/08/02 09:46:19;;;;;;;4.95;1.63;;;21.10;99.90;;;;;;5053421;28;20175;-50
2022/08/02 09:48:51;;;;;;;7.63;1.70;;;21.20;99.90;;;;;;5053773;28;20021;-46
2022/08/02 09:51:22;;;;;;;7.03;2.38;;;21.30;99.90;;;;;;5055152;28;20032;-46
2022/08/02 09:53:50;;;;;;;6.05;1.75;;;21.30;99.90;;;;;;5061594;28;20025;-45
2022/08/02 09:56:17;;;;;;;1.97;1.20;;;21.30;99.90;;;;;;5052563;28;20490;-46
2022/08/02 09:58:43;;;;;;;3.80;1.70;;;21.30;99.90;;;;;;5054438;28;20574;-49
2022/08/02 10:01:09;;;;;;;4.85;1.60;;;21.30;99.90;;;;;;5053569;28;20104;-50
2022/08/02 10:03:34;;;;;;;3.75;1.50;;;21.20;99.90;;;;;;5050847;28;20108;-51
2022/08/02 10:06:01;;;;;;;3.80;1.67;;;21.10;99.90;;;;;;5057421;28;20036;-46
2022/08/02 10:08:28;;;;;;;8.07;1.90;;;21.10;99.90;;;;;;5052946;28;20032;-46
2022/08/02 10:11:02;;;;;;;3.33;1.33;;;21.10;99.90;;;;;;5052578;28;20029;-53
2022/08/02 10:13:33;;;;;;;4.28;1.60;;;21.50;99.90;;;;;;5055951;28;20384;-47
2022/08/02 10:16:01;;;;;;;3.60;1.30;;;21.80;99.90;;;;;;5055220;28;20036;-47
2022/08/02 10:18:27;;;;;;;2.92;1.27;;;21.90;99.90;;;;;;5056055;28;20374;-52
2022/08/02 10:20:55;;;;;;;5.20;1.52;;;22.00;99.90;;;;;;5056219;28;20029;-47
2022/08/02 10:23:23;;;;;;;3.70;1.30;;;21.80;99.90;;;;;;5058445;28;20036;-51
2022/08/02 10:25:50;;;;;;;3.80;1.27;;;21.80;99.90;;;;;;5057869;28;20032;-54
2022/08/02 10:28:17;;;;;;;4.03;1.40;;;21.80;99.90;;;;;;5057163;28;20024;-50
2022/08/02 10:30:47;;;;;;;3.20;1.55;;;21.80;99.90;;;;;;5060607;28;20039;-50
2022/08/02 10:33:17;;;;;;;4.63;1.42;;;21.90;99.90;;;;;;5060561;28;20029;-50
2022/08/02 10:35:46;;;;;;;4.85;1.30;;;22.10;99.90;;;;;;5059888;28;20138;-48
2022/08/02 10:38:15;;;;;;;3.78;1.33;;;22.10;99.90;;;;;;5068108;28;20035;-49
2022/08/02 10:40:49;;;;;;;4.78;1.33;;;22.00;99.90;;;;;;5070628;28;20390;-48
2022/08/02 10:43:36;;;;;;;4.82;2.08;;;21.90;99.90;;;;;;5071710;28;20012;-53
2022/08/02 10:46:23;;;;;;;4.60;1.67;;;21.80;99.90;;;;;;5071021;28;20051;-49
2022/08/02 10:49:15;;;;;;;6.18;2.00;;;21.70;99.90;;;;;;5069609;28;20116;-52
2022/08/02 10:52:01;;;;;;;4.20;1.40;;;21.70;99.90;;;;;;5069962;28;20016;-53
2022/08/02 10:54:41;;;;;;;7.20;1.40;;;21.80;99.90;;;;;;5068480;28;20043;-49
2022/08/02 10:57:21;;;;;;;4.85;1.35;;;21.90;99.90;;;;;;5072037;28;20475;-51
2022/08/02 10:59:51;;;;;;;6.45;1.40;;;22.20;99.90;;;;;;5072479;28;20098;-50
2022/08/02 11:02:43;;;;;;;4.85;1.50;;;22.80;99.90;;;;;;5071140;28;20549;-48
2022/08/02 11:05:32;;;;;;;5.20;1.70;;;23.00;99.90;;;;;;5070222;28;20037;-51
2022/08/02 11:07:58;;;;;;;5.93;1.60;;;23.40;99.90;;;;;;5057849;28;20025;-47
2022/08/02 11:10:38;;;;;;;7.00;1.73;;;23.60;99.90;;;;;;5065569;28;20024;-49
2022/08/02 11:13:09;;;;;;;2.47;1.40;;;23.20;99.90;;;;;;5068757;28;20029;-48
2022/08/02 11:16:03;;;;;;;5.57;1.80;;;22.80;99.90;;;;;;5069166;28;20024;-51
2022/08/02 11:18:50;;;;;;;5.47;1.70;;;22.60;99.90;;;;;;5070347;28;20017;-48
2022/08/02 11:21:23;;;;;;;6.07;1.65;;;22.50;99.90;;;;;;5069398;28;20028;-47
2022/08/02 11:23:49;;;;;;;5.95;1.90;;;22.60;99.90;;;;;;5071960;28;20071;-51
2022/08/02 11:26:30;;;;;;;4.78;1.60;;;22.70;99.90;;;;;;5067745;28;20031;-51
2022/08/02 11:29:02;;;;;;;6.75;1.58;;;22.90;99.90;;;;;;5069846;28;20037;-50
2022/08/02 11:31:36;;;;;;;6.03;1.42;;;23.00;99.90;;;;;;5068314;28;20283;-54
2022/08/02 11:34:04;;;;;;;12.18;4.60;;;23.00;99.90;;;;;;5066268;28;20082;-47
2022/08/02 11:36:30;;;;;;;6.25;2.03;;;22.60;99.90;;;;;;5068994;28;20025;-45
2022/08/02 11:39:09;;;;;;;5.57;1.80;;;22.40;99.90;;;;;;5068521;28;20028;-49
2022/08/02 11:41:35;;;;;;;6.10;1.63;;;22.40;99.90;;;;;;5069460;28;20051;-45
2022/08/02 11:44:01;;;;;;;8.25;1.90;;;22.30;99.90;;;;;;5068286;28;20080;-46
2022/08/02 11:46:26;;;;;;;6.65;1.90;;;22.10;99.90;;;;;;5066417;28;20035;-49
2022/08/02 11:48:52;;;;;;;6.40;1.70;;;21.90;99.90;;;;;;5069735;28;20143;-50
2022/08/02 11:51:18;;;;;;;6.35;1.60;;;21.80;99.90;;;;;;5063301;28;20012;-55
2022/08/02 11:53:52;;;;;;;5.10;1.60;;;21.80;99.90;;;;;;5069088;28;20099;-51
2022/08/02 11:56:25;;;;;;;7.22;1.80;;;21.90;99.90;;;;;;5061587;28;20029;-42
2022/08/02 11:59:09;;;;;;;3.72;1.52;;;21.90;99.90;;;;;;5070919;28;20078;-49
2022/08/02 12:01:37;;;;;;;4.28;1.92;;;21.90;99.90;;;;;;5069632;28;20020;-47
2022/08/02 12:04:04;;;;;;;5.68;1.40;;;22.00;99.90;;;;;;5070936;28;20019;-53
2022/08/02 12:06:31;;;;;;;4.28;1.52;;;22.00;99.90;;;;;;5063141;28;20513;-53
2022/08/02 12:09:12;;;;;;;5.53;2.13;;;21.90;99.90;;;;;;5070197;28;20455;-50
2022/08/02 12:11:38;;;;;;;5.10;1.85;;;21.80;99.90;;;;;;5071714;28;20033;-52
2022/08/02 12:14:05;;;;;;;5.05;1.67;;;21.70;99.90;;;;;;5071186;28;20016;-51
2022/08/02 12:19:25;;;;;;;9.68;1.90;;;21.80;99.90;;;;;;5071347;28;20078;-49
2022/08/02 12:22:14;;;;;;;7.50;2.63;;;21.80;99.90;;;;;;5059062;28;20028;-49
2022/08/02 12:24:42;;;;;;;3.10;1.58;;;21.90;99.90;;;;;;5067871;28;20037;-55
2022/08/02 12:27:09;;;;;;;8.70;2.90;;;21.90;99.90;;;;;;5070960;28;20012;-47
2022/08/02 12:29:39;;;;;;;9.02;2.75;;;22.00;99.90;;;;;;5071236;28;20059;-51
2022/08/02 12:32:05;;;;;;;6.20;2.30;;;22.00;99.90;;;;;;5066236;28;20036;-54
2022/08/02 12:34:33;;;;;;;4.75;2.05;;;22.00;99.90;;;;;;5064189;28;20462;-53
2022/08/02 12:37:07;;;;;;;5.88;1.98;;;22.00;99.90;;;;;;5063252;28;20044;-49
2022/08/02 12:39:43;;;;;;;4.50;2.13;;;22.00;99.90;;;;;;5068048;28;20565;-47
2022/08/02 12:42:11;;;;;;;6.30;2.13;;;22.30;99.90;;;;;;5068407;28;20020;-45
2022/08/02 12:44:49;;;;;;;3.97;1.90;;;22.50;99.90;;;;;;5068378;28;20068;-51
2022/08/02 12:47:15;;;;;;;7.13;2.20;;;22.70;99.90;;;;;;5069637;28;20070;-44
2022/08/02 12:49:40;;;;;;;5.68;1.88;;;22.70;99.90;;;;;;5070370;28;20037;-43
2022/08/02 12:52:23;;;;;;;5.85;1.77;;;22.70;99.90;;;;;;5070724;28;20060;-47
2022/08/02 12:54:49;;;;;;;5.80;1.83;;;22.90;99.90;;;;;;5066454;28;20028;-49
2022/08/02 12:57:18;;;;;;;6.47;1.88;;;23.20;99.90;;;;;;5066804;28;20068;-52
2022/08/02 12:59:51;;;;;;;4.07;1.60;;;23.70;99.90;;;;;;5051540;28;20025;-57
2022/08/02 13:02:17;;;;;;;2.75;1.40;;;24.10;99.70;;;;;;5050983;28;20079;-53